Time;durP1;ratioP1;P1;durP2;ratioP2;P2;SDS_P1;SDS_P2;PMS_P1;PMS_P2;Temp;Humidity;BMP_temperature;BMP_pressure;BME280_temperature;BME280_humidity;BME280_pressure;Samples;Min_cycle;Max_cycle;Signal;HPM_P1;HPM_P2
2022/01/15 00:00:50;;;;;;;17.13;11.75;;;;;;;15.41;39.67;94426.22;4934790;28;20032;-85
2022/01/15 00:03:15;;;;;;;18.23;11.80;;;;;;;15.44;39.22;94424.53;4955070;28;20497;-85
2022/01/15 00:05:41;;;;;;;17.92;12.35;;;;;;;15.40;39.43;94422.00;4934641;28;20102;-85
2022/01/15 00:08:06;;;;;;;21.58;14.25;;;;;;;15.39;39.53;94425.19;4949786;28;20035;-85
2022/01/15 00:10:31;;;;;;;17.08;11.73;;;;;;;15.41;39.66;94428.94;4934309;29;20047;-85
2022/01/15 00:12:58;;;;;;;20.40;12.98;;;;;;;15.41;39.74;94431.69;4950306;28;20110;-84
2022/01/15 00:15:28;;;;;;;18.40;12.00;;;;;;;15.38;39.87;94418.97;4933624;28;20039;-85
2022/01/15 00:18:11;;;;;;;17.38;11.57;;;;;;;15.42;39.53;94416.09;4916482;29;20075;-85
2022/01/15 00:20:37;;;;;;;20.48;11.88;;;;;;;15.38;39.69;94410.81;4931089;28;20039;-85
2022/01/15 00:23:02;;;;;;;19.27;12.52;;;;;;;15.44;39.60;94413.66;4914892;28;20040;-85
2022/01/15 00:25:29;;;;;;;19.58;11.35;;;;;;;15.41;39.52;94411.84;4915568;29;20032;-85
2022/01/15 00:27:54;;;;;;;15.52;10.85;;;;;;;15.41;39.67;94411.84;4915512;29;20066;-85
2022/01/15 00:30:20;;;;;;;21.88;14.35;;;;;;;15.38;39.71;94420.94;4898643;28;20491;-84
2022/01/15 00:32:45;;;;;;;21.42;13.07;;;;;;;15.38;39.65;94418.22;4901304;29;20047;-85
2022/01/15 00:35:13;;;;;;;17.73;11.45;;;;;;;15.40;39.57;94407.63;4936473;28;20039;-84
2022/01/15 00:37:39;;;;;;;17.95;10.70;;;;;;;15.45;39.69;94417.88;4921862;28;20037;-84
2022/01/15 00:40:06;;;;;;;16.05;11.68;;;;;;;15.42;39.56;94414.09;4936982;28;20066;-84
2022/01/15 00:42:33;;;;;;;18.23;11.73;;;;;;;15.43;39.63;94418.34;4936842;28;20039;-85
2022/01/15 00:45:00;;;;;;;19.83;12.60;;;;;;;15.37;39.78;94412.03;4936982;28;20034;-85
2022/01/15 00:47:30;;;;;;;19.98;12.50;;;;;;;15.38;39.60;94412.78;4936846;28;20121;-85
2022/01/15 00:49:57;;;;;;;19.43;12.23;;;;;;;15.40;39.36;94411.09;4937605;28;20061;-85
2022/01/15 00:52:22;;;;;;;18.60;12.10;;;;;;;15.44;39.48;94410.91;4936533;28;20057;-84
2022/01/15 00:54:48;;;;;;;21.63;14.45;;;;;;;15.38;39.60;94416.25;4936010;28;20027;-85
2022/01/15 00:57:13;;;;;;;18.08;11.95;;;;;;;15.36;39.67;94405.09;4935851;28;20035;-85
2022/01/15 00:59:38;;;;;;;20.13;13.15;;;;;;;15.35;39.30;94403.59;4952567;28;20031;-85
2022/01/15 01:02:04;;;;;;;19.10;12.20;;;;;;;15.39;39.50;94401.41;4966576;28;20031;-85
2022/01/15 01:04:29;;;;;;;15.90;10.82;;;;;;;15.43;39.44;94409.41;4969600;28;20042;-85
2022/01/15 01:06:54;;;;;;;17.35;11.48;;;;;;;15.42;39.70;94405.94;4936505;28;20030;-85
2022/01/15 01:09:21;;;;;;;20.60;13.40;;;;;;;15.41;39.61;94406.41;4935995;28;20043;-84
2022/01/15 01:11:57;;;;;;;20.60;12.95;;;;;;;15.40;39.43;94413.81;4952728;28;20085;-85
2022/01/15 01:20:10;;;;;;;17.70;11.73;;;;;;;15.41;40.00;94400.94;4935573;28;20045;-85
2022/01/15 01:22:54;;;;;;;24.27;16.17;;;;;;;15.36;39.75;94399.66;4922653;28;20118;-85
2022/01/15 01:25:20;;;;;;;21.38;12.88;;;;;;;15.33;39.53;94400.59;4921666;28;20069;-85
2022/01/15 01:27:50;;;;;;;17.52;11.88;;;;;;;15.33;39.72;94400.59;4917855;29;20039;-85
2022/01/15 01:30:27;;;;;;;17.08;11.52;;;;;;;15.34;39.74;94401.34;4933124;28;20039;-85
2022/01/15 01:32:58;;;;;;;19.08;12.93;;;;;;;15.38;39.59;94399.91;4920086;28;20538;-85
2022/01/15 01:35:36;;;;;;;20.33;12.98;;;;;;;15.37;39.62;94401.13;4935030;28;20050;-85
2022/01/15 01:38:12;;;;;;;22.85;14.50;;;;;;;15.34;39.42;94398.59;4937766;28;20060;-84
2022/01/15 01:40:41;;;;;;;19.10;13.55;;;;;;;15.33;40.12;94389.69;4953608;28;20073;-85
2022/01/15 01:43:39;;;;;;;18.25;13.07;;;;;;;15.42;39.74;94397.00;4936574;28;20057;-85
2022/01/15 01:46:12;;;;;;;17.45;11.75;;;;;;;15.36;39.81;94382.56;4942548;28;20359;-85
2022/01/15 01:48:38;;;;;;;18.02;12.38;;;;;;;15.35;39.61;94392.69;4954634;28;20047;-85
2022/01/15 01:51:06;;;;;;;17.20;11.63;;;;;;;15.36;39.84;94382.56;4919920;28;20041;-84
2022/01/15 01:53:31;;;;;;;18.73;11.63;;;;;;;15.36;39.68;94377.09;4937169;28;20061;-85
2022/01/15 01:55:57;;;;;;;21.80;13.40;;;;;;;15.35;39.75;94370.16;4952122;28;20059;-85
2022/01/15 01:58:22;;;;;;;20.20;13.18;;;;;;;15.37;39.59;94368.44;4935742;28;20035;-84
2022/01/15 02:00:47;;;;;;;20.77;14.02;;;;;;;15.35;39.82;94367.41;4935706;28;20390;-85
2022/01/15 02:03:13;;;;;;;17.45;11.50;;;;;;;15.32;39.85;94362.91;4956440;28;20086;-84
2022/01/15 02:05:39;;;;;;;16.92;12.02;;;;;;;15.37;39.58;94360.25;4936560;28;20359;-84
2022/01/15 02:08:04;;;;;;;20.00;13.15;;;;;;;15.42;39.62;94362.34;4925799;28;20039;-85
2022/01/15 02:10:30;;;;;;;17.30;12.65;;;;;;;15.44;39.52;94357.19;4954493;28;20043;-84
2022/01/15 02:12:55;;;;;;;19.98;13.15;;;;;;;15.35;39.63;94362.72;4954701;28;20030;-85
2022/01/15 02:15:22;;;;;;;18.85;12.30;;;;;;;15.42;39.37;94356.88;4971090;28;20050;-85
2022/01/15 02:17:47;;;;;;;17.50;12.35;;;;;;;15.40;39.67;94355.84;4953465;28;20133;-85
2022/01/15 02:20:48;;;;;;;;;;;;;;;;;;;;;
2022/01/15 02:25:42;;;;;;;17.55;11.50;;;;;;;15.35;39.73;94364.69;4953542;28;20069;-84
2022/01/15 02:28:08;;;;;;;18.83;11.48;;;;;;;15.37;39.68;94354.09;4955685;28;20027;-85
2022/01/15 02:30:33;;;;;;;21.48;13.23;;;;;;;15.36;39.63;94358.78;4955326;28;20049;-85
2022/01/15 02:32:59;;;;;;;13.88;10.85;;;;;;;15.32;39.72;94360.19;4939209;28;20525;-85
2022/01/15 02:35:24;;;;;;;17.90;11.70;;;;;;;15.40;39.54;94347.69;4956996;28;20035;-85
2022/01/15 02:37:49;;;;;;;19.92;12.57;;;;;;;15.33;39.62;94350.78;4938806;28;20050;-85
2022/01/15 02:40:16;;;;;;;17.73;11.95;;;;;;;15.34;40.10;94352.28;4952910;28;20593;-85
2022/01/15 02:42:41;;;;;;;18.88;11.65;;;;;;;15.38;39.71;94352.84;4971028;28;20046;-85
2022/01/15 02:45:08;;;;;;;15.73;11.65;;;;;;;15.40;39.68;94353.13;4971946;28;20027;-85
2022/01/15 02:50:19;;;;;;;17.77;12.43;;;;;;;15.51;39.34;94338.97;4970938;28;20049;-84
2022/01/15 02:52:45;;;;;;;17.13;11.85;;;;;;;15.41;39.63;94349.94;4955098;28;20039;-84
2022/01/15 02:55:10;;;;;;;15.77;10.93;;;;;;;15.37;39.78;94343.19;4970519;28;20109;-85
2022/01/15 02:57:37;;;;;;;16.40;11.75;;;;;;;15.34;39.60;94344.13;4951846;28;20035;-85
2022/01/15 03:00:03;;;;;;;16.00;11.00;;;;;;;15.34;39.73;94344.88;4954449;28;20027;-84
2022/01/15 03:02:31;;;;;;;16.73;11.75;;;;;;;15.41;39.63;94332.84;4960667;28;20038;-85
2022/01/15 03:04:57;;;;;;;18.58;12.60;;;;;;;15.34;39.75;94336.72;4939177;28;20033;-85
2022/01/15 03:07:22;;;;;;;16.35;11.27;;;;;;;15.38;39.83;94333.78;4938239;28;20512;-84
2022/01/15 03:09:48;;;;;;;14.68;11.07;;;;;;;15.37;39.55;94333.03;4923120;28;20400;-85
2022/01/15 03:12:13;;;;;;;16.50;11.18;;;;;;;15.40;39.55;94331.34;4938154;28;20039;-85
2022/01/15 03:14:39;;;;;;;16.90;10.90;;;;;;;15.39;39.67;94327.84;4954821;28;20035;-84
2022/01/15 03:17:04;;;;;;;16.25;11.82;;;;;;;15.42;39.70;94328.91;4937772;28;20027;-85
2022/01/15 03:19:29;;;;;;;15.90;10.63;;;;;;;15.37;39.81;94324.84;4937178;28;20042;-85
2022/01/15 03:21:56;;;;;;;16.63;11.25;;;;;;;15.36;39.63;94323.38;4938385;28;20039;-85
2022/01/15 03:24:21;;;;;;;16.20;11.48;;;;;;;15.43;39.62;94325.69;4938608;28;20039;-85
2022/01/15 03:26:46;;;;;;;17.45;12.05;;;;;;;15.38;39.69;94326.34;4938424;28;20560;-84
2022/01/15 03:29:12;;;;;;;18.08;12.20;;;;;;;15.34;39.54;94317.63;4953916;28;20035;-85
2022/01/15 03:31:37;;;;;;;16.25;11.80;;;;;;;15.38;39.78;94325.59;4922471;28;20042;-84
2022/01/15 03:34:02;;;;;;;17.38;12.43;;;;;;;15.31;39.72;94318.56;4970676;28;20054;-85
2022/01/15 03:36:28;;;;;;;16.65;11.45;;;;;;;15.37;39.78;94319.41;4938027;28;20042;-85
2022/01/15 03:38:53;;;;;;;17.70;11.23;;;;;;;15.35;39.63;94324.59;4954136;28;20031;-84
2022/01/15 03:41:19;;;;;;;18.20;11.82;;;;;;;15.38;39.67;94318.19;4937604;28;20497;-85
2022/01/15 03:43:44;;;;;;;14.82;10.70;;;;;;;15.35;39.74;94315.66;4938232;28;20035;-85
2022/01/15 03:46:09;;;;;;;15.68;11.43;;;;;;;15.36;39.55;94315.19;4937571;28;20043;-85
2022/01/15 03:48:35;;;;;;;20.60;11.52;;;;;;;15.38;39.49;94320.16;4954017;28;20038;-84
2022/01/15 03:51:00;;;;;;;15.85;10.95;;;;;;;15.48;39.60;94321.56;4953754;28;20422;-85
2022/01/15 03:53:26;;;;;;;15.02;11.20;;;;;;;15.43;39.53;94309.34;4970477;28;20473;-85
2022/01/15 03:55:51;;;;;;;16.88;11.27;;;;;;;15.35;39.71;94323.84;4937895;28;20027;-85
2022/01/15 03:58:18;;;;;;;15.57;10.93;;;;;;;15.32;39.76;94324.78;4953200;28;20062;-85
2022/01/15 04:00:43;;;;;;;16.90;11.10;;;;;;;15.41;39.57;94319.22;4937959;28;20031;-84
2022/01/15 04:03:08;;;;;;;16.60;11.68;;;;;;;15.37;39.69;94319.41;4952702;28;20042;-85
2022/01/15 04:05:34;;;;;;;15.38;11.20;;;;;;;15.37;39.63;94316.66;4954066;28;20449;-85
2022/01/15 04:08:00;;;;;;;15.40;10.88;;;;;;;15.36;39.69;94317.16;4937579;28;20065;-85
2022/01/15 04:10:25;;;;;;;15.38;10.50;;;;;;;15.41;39.90;94330.13;4952939;28;20564;-85
2022/01/15 04:12:52;;;;;;;15.48;10.52;;;;;;;15.37;39.75;94324.84;4937539;28;20039;-84
2022/01/15 04:15:18;;;;;;;15.30;10.75;;;;;;;15.33;39.80;94313.41;4936932;28;20406;-85
2022/01/15 04:17:44;;;;;;;18.00;11.68;;;;;;;15.35;39.34;94316.41;4937653;28;20041;-84
2022/01/15 04:20:10;;;;;;;16.75;11.02;;;;;;;15.33;39.92;94310.69;4936842;28;20041;-84
2022/01/15 04:22:36;;;;;;;16.63;11.50;;;;;;;15.34;40.05;94304.00;4937240;28;20622;-85
2022/01/15 04:25:01;;;;;;;18.15;11.70;;;;;;;15.35;39.82;94308.25;4953375;28;20050;-85
2022/01/15 04:27:27;;;;;;;17.63;11.20;;;;;;;15.36;39.75;94314.44;4936726;28;20280;-85
2022/01/15 04:29:55;;;;;;;17.70;11.68;;;;;;;15.37;39.72;94303.06;4937316;28;20039;-85
2022/01/15 04:32:20;;;;;;;16.67;10.90;;;;;;;15.39;39.42;94302.59;4953047;28;20039;-85
2022/01/15 04:34:47;;;;;;;17.38;11.13;;;;;;;15.33;39.80;94305.22;4933442;28;20039;-85
2022/01/15 04:37:17;;;;;;;16.85;10.77;;;;;;;15.37;39.94;94300.31;4933354;28;20031;-85
2022/01/15 04:39:43;;;;;;;15.98;10.93;;;;;;;15.36;39.84;94296.13;4934686;28;20410;-85
2022/01/15 04:42:09;;;;;;;15.45;10.90;;;;;;;15.39;39.59;94306.06;4949163;28;20046;-84
2022/01/15 04:44:35;;;;;;;15.15;10.55;;;;;;;15.40;39.52;94310.28;4933675;28;20046;-85
2022/01/15 04:47:03;;;;;;;16.33;11.02;;;;;;;15.35;39.70;94310.97;4917796;29;20348;-85
2022/01/15 04:49:28;;;;;;;15.23;10.35;;;;;;;15.38;39.78;94314.69;4949433;28;20051;-84
2022/01/15 04:51:53;;;;;;;13.05;10.13;;;;;;;15.35;39.64;94323.84;4933909;28;20023;-85
2022/01/15 04:54:19;;;;;;;15.95;11.02;;;;;;;15.42;39.47;94326.16;4932962;28;20036;-85
2022/01/15 04:56:44;;;;;;;15.93;11.75;;;;;;;15.37;39.81;94316.66;4949307;28;20027;-85
2022/01/15 04:59:10;;;;;;;15.02;10.32;;;;;;;15.33;39.88;94321.56;4949999;28;20056;-85
2022/01/15 05:01:36;;;;;;;16.05;10.45;;;;;;;15.33;39.65;94318.09;4933551;28;20046;-84
2022/01/15 05:04:01;;;;;;;14.93;10.77;;;;;;;15.34;39.85;94325.06;4917640;29;20054;-85
2022/01/15 05:06:26;;;;;;;16.45;10.27;;;;;;;15.30;39.72;94322.50;4948812;28;20046;-84
2022/01/15 05:09:01;;;;;;;14.57;9.80;;;;;;;15.38;39.85;94317.44;4949243;28;20027;-85
2022/01/15 05:11:31;;;;;;;13.80;9.98;;;;;;;15.36;39.81;94325.34;4949461;28;20127;-85
2022/01/15 05:13:56;;;;;;;15.93;10.13;;;;;;;15.46;39.79;94323.25;4934006;29;20031;-85
2022/01/15 05:16:22;;;;;;;15.60;10.35;;;;;;;15.38;39.60;94326.34;4950337;28;20482;-85
2022/01/15 05:18:47;;;;;;;15.77;11.07;;;;;;;15.36;39.82;94322.63;4933391;28;20042;-84
2022/01/15 05:21:13;;;;;;;13.60;9.77;;;;;;;15.30;39.86;94322.50;4950127;28;20086;-85
2022/01/15 05:23:38;;;;;;;12.50;10.27;;;;;;;15.31;39.98;94332.19;4949303;28;20122;-85
2022/01/15 05:26:04;;;;;;;16.65;10.48;;;;;;;15.30;40.02;94330.69;4949913;28;20035;-84
2022/01/15 05:28:29;;;;;;;14.02;9.40;;;;;;;15.42;39.83;94329.66;4948816;28;20043;-85
2022/01/15 05:30:54;;;;;;;16.80;10.75;;;;;;;15.36;39.97;94315.19;4933126;28;20038;-85
2022/01/15 05:33:20;;;;;;;14.70;10.35;;;;;;;15.32;39.96;94330.22;4916948;28;20051;-84
2022/01/15 05:35:45;;;;;;;14.80;10.23;;;;;;;15.34;39.98;94323.09;4933268;28;20039;-85
2022/01/15 05:38:10;;;;;;;13.43;10.00;;;;;;;15.35;39.70;94324.59;4932818;28;20470;-84
2022/01/15 05:40:36;;;;;;;17.20;11.18;;;;;;;15.41;39.75;94319.22;4932962;28;20086;-85
2022/01/15 05:43:01;;;;;;;13.38;9.82;;;;;;;15.42;39.72;94318.00;4936454;28;20051;-84
2022/01/15 05:45:28;;;;;;;14.68;10.65;;;;;;;15.37;39.55;94324.13;4936866;29;20071;-85
2022/01/15 05:47:54;;;;;;;14.90;10.18;;;;;;;15.39;39.82;94313.47;4921609;29;20035;-85
2022/01/15 05:50:19;;;;;;;14.90;10.65;;;;;;;15.44;39.73;94321.00;4952560;28;20087;-85
2022/01/15 05:52:44;;;;;;;14.07;9.95;;;;;;;15.37;39.73;94322.13;4952982;28;20047;-84
2022/01/15 05:55:10;;;;;;;16.52;10.20;;;;;;;15.37;40.05;94316.66;4936449;28;20043;-84
2022/01/15 05:57:36;;;;;;;15.00;10.57;;;;;;;15.43;39.98;94319.50;4917651;29;20500;-85
2022/01/15 06:00:04;;;;;;;13.63;9.30;;;;;;;15.49;39.49;94325.06;4904399;28;20483;-85
2022/01/15 06:02:29;;;;;;;15.70;9.52;;;;;;;15.46;39.58;94323.25;4926029;29;20043;-85
2022/01/15 06:04:54;;;;;;;14.07;9.80;;;;;;;15.36;39.74;94328.06;4936796;29;20091;-85
2022/01/15 06:07:20;;;;;;;13.75;10.65;;;;;;;15.40;39.63;94318.47;4935107;28;20044;-85
2022/01/15 06:09:45;;;;;;;14.18;10.45;;;;;;;15.46;39.48;94336.88;4935212;29;20218;-84
2022/01/15 06:12:11;;;;;;;15.40;10.10;;;;;;;15.37;39.55;94319.41;4935034;28;20035;-84
2022/01/15 06:14:36;;;;;;;13.23;9.35;;;;;;;15.34;39.80;94325.81;4935498;28;20035;-84
2022/01/15 06:17:03;;;;;;;50.42;12.77;;;;;;;15.35;39.71;94319.13;4951554;28;20405;-84
2022/01/15 06:19:28;;;;;;;28.98;10.15;;;;;;;15.44;39.57;94318.28;4952447;28;20147;-83
2022/01/15 06:21:54;;;;;;;20.85;10.38;;;;;;;15.46;39.49;94326.00;4936679;28;20439;-83
2022/01/15 06:24:19;;;;;;;18.25;9.32;;;;;;;15.46;39.47;94318.56;4951666;28;20039;-83
2022/01/15 06:26:44;;;;;;;19.48;9.52;;;;;;;15.43;39.59;94322.22;4920679;29;20039;-83
2022/01/15 06:29:10;;;;;;;22.38;9.60;;;;;;;15.44;39.46;94316.31;4952119;28;20074;-82
2022/01/15 06:31:35;;;;;;;16.58;10.35;;;;;;;15.46;39.35;94321.28;4936218;28;20062;-82
2022/01/15 06:34:01;;;;;;;20.67;9.48;;;;;;;15.48;39.50;94324.31;4951777;28;20051;-82
2022/01/15 06:36:26;;;;;;;24.00;10.68;;;;;;;15.43;39.60;94319.50;4935470;28;20065;-83
2022/01/15 06:38:52;;;;;;;18.80;9.45;;;;;;;15.43;39.70;94317.53;4928369;29;20047;-82
2022/01/15 06:41:17;;;;;;;44.92;12.88;;;;;;;15.42;39.71;94313.31;4900502;28;20036;-83
2022/01/15 06:43:42;;;;;;;36.60;13.02;;;;;;;15.46;39.43;94315.09;4933304;28;20035;-83
2022/01/15 06:46:08;;;;;;;30.17;9.68;;;;;;;15.46;39.75;94317.81;4900702;28;20039;-83
2022/01/15 06:48:33;;;;;;;30.88;11.48;;;;;;;15.38;39.74;94317.44;4916911;29;20044;-83
2022/01/15 06:50:59;;;;;;;39.28;11.27;;;;;;;15.43;39.78;94311.31;4933926;28;20039;-82
2022/01/15 06:53:25;;;;;;;23.45;10.18;;;;;;;15.46;39.67;94315.84;4932578;28;20047;-82
2022/01/15 06:55:52;;;;;;;22.45;10.85;;;;;;;15.47;39.54;94320.06;4917362;29;20032;-83
2022/01/15 06:58:18;;;;;;;50.25;13.38;;;;;;;15.42;39.94;94318.00;4944192;28;20525;-83
2022/01/15 07:00:43;;;;;;;32.92;10.52;;;;;;;15.48;39.48;94318.09;4935614;28;20093;-82
2022/01/15 07:03:09;;;;;;;30.38;12.50;;;;;;;15.43;39.37;94316.78;4951112;28;20043;-82
2022/01/15 07:05:34;;;;;;;25.17;15.02;;;;;;;15.45;39.44;94314.34;4935906;28;20411;-84
2022/01/15 07:08:00;;;;;;;37.38;14.98;;;;;;;15.48;39.60;94315.38;4951828;28;20059;-85
2022/01/15 07:10:25;;;;;;;43.08;18.75;;;;;;;15.43;39.67;94314.06;4935321;28;20051;-84
2022/01/15 07:12:51;;;;;;;54.78;19.10;;;;;;;15.47;39.47;94316.59;4935734;28;20333;-85
2022/01/15 07:15:16;;;;;;;58.30;21.77;;;;;;;15.46;39.59;94318.56;4935444;28;20501;-84
2022/01/15 07:17:44;;;;;;;60.90;21.80;;;;;;;15.46;39.38;94318.56;4951619;28;20032;-84
2022/01/15 07:20:10;;;;;;;61.05;19.90;;;;;;;15.48;39.49;94316.13;4919721;28;20082;-84
2022/01/15 07:22:35;;;;;;;55.05;20.23;;;;;;;15.44;39.48;94316.31;4951308;28;20043;-85
2022/01/15 07:25:00;;;;;;;52.97;19.52;;;;;;;15.46;39.56;94326.00;4951544;28;20170;-86
2022/01/15 07:27:26;;;;;;;47.72;19.42;;;;;;;15.47;39.58;94319.31;4935846;28;20035;-85
2022/01/15 07:29:51;;;;;;;45.92;18.25;;;;;;;15.51;39.59;94309.00;4951202;28;20051;-86
2022/01/15 07:32:17;;;;;;;38.78;16.02;;;;;;;15.47;39.44;94311.91;4950894;28;20035;-84
2022/01/15 07:34:42;;;;;;;47.97;17.85;;;;;;;15.42;39.71;94313.31;4951271;28;20040;-85
2022/01/15 07:37:08;;;;;;;56.38;19.20;;;;;;;15.44;39.69;94312.84;4934551;28;20043;-85
2022/01/15 07:39:35;;;;;;;53.00;21.17;;;;;;;15.43;39.60;94314.06;4919435;29;20434;-85
2022/01/15 07:42:00;;;;;;;50.42;18.88;;;;;;;15.49;39.62;94314.91;4935654;29;20410;-85
2022/01/15 07:44:25;;;;;;;52.60;20.50;;;;;;;15.53;39.64;94323.66;4918604;28;20043;-85
2022/01/15 07:46:51;;;;;;;47.03;19.80;;;;;;;15.51;39.35;94317.91;4950904;28;20051;-85
2022/01/15 07:49:16;;;;;;;48.47;18.30;;;;;;;15.48;39.42;94310.69;4935081;28;20078;-87
2022/01/15 07:51:42;;;;;;;43.38;17.02;;;;;;;15.48;39.69;94316.13;4919365;29;20039;-85
2022/01/15 07:54:07;;;;;;;51.05;18.98;;;;;;;15.48;39.58;94307.19;4950979;28;20043;-86
2022/01/15 07:56:32;;;;;;;49.20;17.25;;;;;;;15.46;39.62;94298.75;4919104;29;20050;-86
2022/01/15 07:58:58;;;;;;;43.80;19.00;;;;;;;15.52;39.76;94307.78;4933781;28;20492;-85
2022/01/15 08:01:23;;;;;;;40.15;18.92;;;;;;;15.47;39.47;94316.59;4914678;28;20051;-86
2022/01/15 08:03:49;;;;;;;47.75;17.60;;;;;;;15.47;39.70;94322.78;4916983;28;20047;-84
2022/01/15 08:06:15;;;;;;;62.47;19.23;;;;;;;15.47;39.56;94316.59;4916227;28;20047;-85
2022/01/15 08:08:40;;;;;;;59.67;18.55;;;;;;;15.40;39.84;94320.44;4948491;28;20036;-85
2022/01/15 08:11:06;;;;;;;75.35;23.48;;;;;;;15.38;39.83;94326.34;4930246;28;20050;-85
2022/01/15 08:13:31;;;;;;;57.33;20.33;;;;;;;15.46;39.58;94329.47;4934603;28;20090;-85
2022/01/15 08:15:57;;;;;;;60.15;21.70;;;;;;;15.50;39.71;94324.59;4948422;28;20392;-85
2022/01/15 08:18:23;;;;;;;52.05;19.13;;;;;;;15.48;39.84;94324.31;4915027;28;20055;-85
2022/01/15 08:20:49;;;;;;;54.60;18.67;;;;;;;15.47;39.64;94332.94;4917859;29;20054;-85
2022/01/15 08:23:14;;;;;;;40.70;16.70;;;;;;;15.46;39.64;94324.03;4917847;28;20042;-85
2022/01/15 08:25:40;;;;;;;50.00;17.58;;;;;;;15.44;39.58;94326.47;4918953;29;20054;-85
2022/01/15 08:28:05;;;;;;;77.68;19.48;;;;;;;15.53;39.52;94322.91;4933803;28;20082;-85
2022/01/15 08:30:30;;;;;;;52.53;19.33;;;;;;;15.47;39.75;94313.88;4934394;28;20180;-84
2022/01/15 08:32:56;;;;;;;56.22;18.50;;;;;;;15.50;39.84;94326.56;4934815;28;20459;-84
2022/01/15 08:35:21;;;;;;;47.72;18.10;;;;;;;15.48;39.77;94326.28;4952720;28;20043;-85
2022/01/15 08:37:47;;;;;;;60.42;21.48;;;;;;;15.40;39.66;94326.63;4953348;28;20035;-84
2022/01/15 08:40:13;;;;;;;47.63;20.65;;;;;;;15.53;39.84;94331.81;4936111;28;20038;-85
2022/01/15 08:42:39;;;;;;;61.95;21.08;;;;;;;15.53;39.73;94328.34;4921508;28;20134;-85
2022/01/15 08:45:05;;;;;;;47.38;16.40;;;;;;;15.60;39.34;94334.19;4952272;28;20439;-85
2022/01/15 08:47:32;;;;;;;61.08;20.70;;;;;;;15.48;39.69;94337.94;4921555;28;20089;-85
2022/01/15 08:49:57;;;;;;;62.65;21.92;;;;;;;15.50;39.97;94332.75;4921900;28;20042;-85
2022/01/15 08:52:22;;;;;;;43.22;18.98;;;;;;;15.54;39.57;94338.03;4921152;28;20038;-85
2022/01/15 08:54:48;;;;;;;48.20;18.90;;;;;;;15.56;39.57;94341.81;4937016;28;20027;-85
2022/01/15 08:57:13;;;;;;;53.17;17.85;;;;;;;15.55;39.63;94332.13;4921090;28;20034;-86
2022/01/15 08:59:39;;;;;;;72.82;22.33;;;;;;;15.59;39.43;94337.41;4921561;28;20438;-85
2022/01/15 09:02:04;;;;;;;54.90;20.15;;;;;;;15.51;39.79;94337.00;4950292;28;20031;-85
2022/01/15 09:04:29;;;;;;;58.92;22.63;;;;;;;15.57;39.46;94326.22;4970801;28;20027;-86
2022/01/15 09:06:55;;;;;;;56.22;20.27;;;;;;;15.59;39.64;94338.13;4936600;28;20051;-85
2022/01/15 09:09:20;;;;;;;58.70;18.88;;;;;;;15.55;39.49;94321.22;4937038;28;20061;-85
2022/01/15 09:11:46;;;;;;;68.03;23.88;;;;;;;15.49;39.64;94325.81;4936982;28;20027;-85
2022/01/15 09:14:12;;;;;;;71.50;22.20;;;;;;;15.52;39.82;94324.13;4936713;28;20047;-85
2022/01/15 09:16:37;;;;;;;68.10;20.83;;;;;;;15.58;39.48;94327.72;4952429;28;20513;-86
2022/01/15 09:19:03;;;;;;;63.70;21.65;;;;;;;15.55;39.80;94326.66;4936698;28;20035;-85
2022/01/15 09:21:28;;;;;;;57.05;20.70;;;;;;;15.53;39.53;94312.75;4933750;28;20031;-86
2022/01/15 09:23:54;;;;;;;71.28;21.85;;;;;;;15.56;39.77;94322.00;4917899;29;20034;-86
2022/01/15 09:26:34;;;;;;;101.55;26.05;;;;;;;15.57;39.35;94326.97;4933584;28;20035;-86
2022/01/15 09:31:43;;;;;;;77.78;22.52;;;;;;;15.57;39.63;94323.50;4922656;29;20058;-85
2022/01/15 09:34:09;;;;;;;72.15;26.10;;;;;;;15.58;39.59;94305.94;4900990;29;20039;-85
2022/01/15 09:36:34;;;;;;;77.65;23.67;;;;;;;15.55;39.47;94307.59;4917616;29;20376;-86
2022/01/15 09:39:00;;;;;;;77.85;26.17;;;;;;;15.58;39.56;94305.94;4917111;29;20051;-85
2022/01/15 09:41:25;;;;;;;66.93;25.02;;;;;;;15.58;39.45;94305.94;4932933;28;20111;-86
2022/01/15 09:43:51;;;;;;;85.95;26.90;;;;;;;15.60;39.37;94300.72;4933332;28;20490;-85
2022/01/15 09:46:16;;;;;;;81.75;28.02;;;;;;;15.60;39.53;94309.66;4916530;28;20031;-86
2022/01/15 09:48:42;;;;;;;64.95;25.60;;;;;;;15.63;39.36;94318.88;4933764;28;20082;-85
2022/01/15 09:51:07;;;;;;;80.63;26.67;;;;;;;15.60;39.38;94303.47;4933086;28;20485;-85
2022/01/15 09:53:33;;;;;;;71.00;27.15;;;;;;;15.58;39.62;94303.97;4933043;28;20036;-84
2022/01/15 09:55:59;;;;;;;75.97;24.63;;;;;;;15.64;39.38;94306.75;4933411;28;20054;-84
2022/01/15 09:58:24;;;;;;;67.65;24.30;;;;;;;15.64;39.41;94310.22;4933405;28;20128;-86
2022/01/15 10:00:49;;;;;;;72.97;28.35;;;;;;;15.64;39.40;94304.78;4952196;28;20039;-86
2022/01/15 10:03:15;;;;;;;89.00;27.70;;;;;;;15.60;39.62;94312.38;4940322;28;20402;-86
2022/01/15 10:05:40;;;;;;;75.00;25.95;;;;;;;15.61;39.53;94308.44;4921786;28;20050;-86
2022/01/15 10:08:09;;;;;;;60.38;23.23;;;;;;;15.62;39.76;94311.91;4950570;28;20561;-85
2022/01/15 10:10:34;;;;;;;75.93;26.45;;;;;;;15.61;39.51;94310.41;4935437;28;20026;-85
2022/01/15 10:13:19;;;;;;;66.13;27.90;;;;;;;15.60;39.40;94300.72;4968411;28;20494;-85
2022/01/15 10:15:47;;;;;;;70.82;30.50;;;;;;;15.62;39.64;94303.75;4945315;28;20042;-85
2022/01/15 10:18:23;;;;;;;68.18;30.80;;;;;;;15.63;39.69;94299.78;4951575;28;20031;-85
2022/01/15 10:20:49;;;;;;;93.38;34.70;;;;;;;15.61;39.74;94307.69;4963584;28;20035;-85
2022/01/15 10:23:17;;;;;;;75.55;30.67;;;;;;;15.62;39.68;94303.75;4936023;28;20513;-85
2022/01/15 10:25:42;;;;;;;65.80;29.55;;;;;;;15.56;39.84;94292.03;4969629;28;20065;-84
2022/01/15 10:28:09;;;;;;;81.93;34.53;;;;;;;15.56;39.75;94298.22;4953153;28;20035;-86
2022/01/15 10:30:35;;;;;;;79.25;34.15;;;;;;;15.63;39.70;94297.06;4923541;28;20062;-85
2022/01/15 10:33:01;;;;;;;72.30;29.38;;;;;;;15.53;39.88;94292.94;4923367;28;20110;-86
2022/01/15 10:35:30;;;;;;;61.03;28.60;;;;;;;15.56;39.85;94287.31;4954703;28;20042;-86
2022/01/15 10:38:02;;;;;;;75.63;29.80;;;;;;;15.61;39.60;94291.34;4939464;28;20049;-85
2022/01/15 10:40:33;;;;;;;72.70;31.55;;;;;;;15.64;39.50;94295.84;4939853;28;20673;-85
2022/01/15 10:42:59;;;;;;;;;;;;;;;15.57;39.57;94299.72;4955478;28;20565;-87
2022/01/15 10:45:29;;;;;;;68.53;29.98;;;;;;;15.54;39.75;94291.69;4939165;28;19918;-86
2022/01/15 10:47:56;;;;;;;79.10;31.75;;;;;;;15.61;39.94;94294.06;4939848;28;20197;-85
2022/01/15 10:50:33;;;;;;;75.40;31.38;;;;;;;15.58;39.89;94295.78;4939304;28;20490;-86
2022/01/15 10:53:05;;;;;;;68.82;31.25;;;;;;;15.61;39.77;94289.34;4939633;28;20047;-86
2022/01/15 10:55:31;;;;;;;73.38;32.45;;;;;;;15.60;39.81;94276.19;4939404;28;20394;-88
2022/01/15 10:58:01;;;;;;;73.82;30.92;;;;;;;15.59;39.62;94272.72;4922955;28;20085;-86
2022/01/15 11:00:30;;;;;;;70.55;31.52;;;;;;;15.68;39.71;94271.88;4941874;28;20509;-86
2022/01/15 11:03:00;;;;;;;66.68;30.42;;;;;;;15.59;39.90;94274.72;4930889;28;20031;-86
2022/01/15 11:05:34;;;;;;;69.32;31.63;;;;;;;15.64;39.58;94263.13;4938543;28;20498;-86
2022/01/15 11:08:27;;;;;;;58.30;27.40;;;;;;;15.58;39.91;94265.81;4939680;28;20097;-86
2022/01/15 11:10:53;;;;;;;63.40;29.92;;;;;;;15.65;39.78;94256.47;4951988;28;20146;-86
2022/01/15 11:13:34;;;;;;;62.92;30.52;;;;;;;15.60;39.87;94252.44;4938250;28;20034;-85
2022/01/15 11:16:01;;;;;;;64.03;31.17;;;;;;;15.61;39.55;94245.75;4924503;28;20058;-86
2022/01/15 11:18:35;;;;;;;81.25;37.97;;;;;;;15.61;39.82;94245.00;4922225;28;20084;-85
2022/01/15 11:21:02;;;;;;;97.43;43.58;;;;;;;15.61;40.09;94242.28;4939445;28;20042;-85
2022/01/15 11:23:28;;;;;;;84.43;43.00;;;;;;;15.64;40.12;94242.09;4922591;28;20042;-85
2022/01/15 11:25:55;;;;;;;88.15;42.60;;;;;;;15.57;39.72;94228.13;4955094;28;20045;-85
2022/01/15 11:28:23;;;;;;;96.40;50.70;;;;;;;15.58;39.75;94233.09;4938284;28;20043;-87
2022/01/15 11:30:51;;;;;;;104.10;47.33;;;;;;;15.58;39.72;94229.63;4938524;28;20375;-86